Overview Statistics Trail Chart Weather Telemetry Raw packets
 

This is the latest recevied weather packets stored in our database for station/object HG5CJW-10. If no packets are shown the sender has not sent any weather packets the latest 10 day(s).

<< 28 29 30 31 32 >>
Time Temp. Humidity Pressure Rain* Wind** Luminosity Snow
1787883869 20° C 53% 1039 hPa - - - -
1787882969 20.56° C 52% 1039.1 hPa - - - -
1787882069 20.56° C 52% 1039.2 hPa - - - -
1787881169 20.56° C 52% 1039.1 hPa - - - -
1787880268 20.56° C 52% 1038.9 hPa - - - -
1787879363 21.11° C 51% 1039.4 hPa - - - -
1787878463 21.11° C 51% 1039.5 hPa - - - -
1787876663 21.67° C 51% 1039.5 hPa - - - -
1787875763 21.11° C 51% 1038.7 hPa - - - -
1787874863 21.67° C 50% 1039.6 hPa - - - -
1787873963 21.67° C 50% 1039.7 hPa - - - -
1787873062 21.67° C 50% 1039.5 hPa - - - -
1787872162 22.22° C 50% 1039.6 hPa - - - -
1787871262 22.22° C 50% 1039.4 hPa - - - -
1787870362 22.22° C 50% 1039.3 hPa - - - -
1787869462 22.22° C 49% 1039.2 hPa - - - -
1787868562 22.22° C 50% 1039.3 hPa - - - -
1787867662 22.78° C 49% 1039.3 hPa - - - -
1787866762 22.22° C 49% 1038.9 hPa - - - -
1787865857 22.78° C 49% 1039.1 hPa - - - -
1787864956 22.78° C 49% 1039.3 hPa - - - -
1787864056 23.33° C 49% 1039.1 hPa - - - -
1787863157 23.33° C 49% 1039.1 hPa - - - -
1787862256 23.33° C 49% 1039.2 hPa - - - -
1787861356 23.33° C 49% 1038.9 hPa - - - -

* Rain since midnight (hover to see other rain measurements)
** Current wind speed in m/s (hover to see current wind gust speed)